Time;durP1;ratioP1;P1;durP2;ratioP2;P2;SDS_P1;SDS_P2;PMS_P1;PMS_P2;Temp;Humidity;BMP_temperature;BMP_pressure;BME280_temperature;BME280_humidity;BME280_pressure;Samples;Min_cycle;Max_cycle;Signal;HPM_P1;HPM_P2
2024/04/03 00:00:37;;;;;;;;;2.00;1.75;;;;;-143.90;100.00;74870.38;4898889;28;102980;-85
2024/04/03 00:03:03;;;;;;;;;2.50;2.50;;;;;-143.90;100.00;74878.66;4896810;28;103064;-77
2024/04/03 00:05:29;;;;;;;;;3.25;2.25;;;;;-143.90;100.00;74886.94;4891162;28;102411;-76
2024/04/03 00:07:54;;;;;;;;;2.00;2.00;;;;;-143.90;100.00;74882.78;4892535;28;103275;-80
2024/04/03 00:10:20;;;;;;;;;1.00;1.00;;;;;-143.90;100.00;74891.06;4896247;28;102545;-78
2024/04/03 00:12:46;;;;;;;;;2.75;2.00;;;;;-143.90;100.00;74903.47;4898840;28;102486;-79
2024/04/03 00:15:13;;;;;;;;;2.00;2.00;;;;;-143.90;100.00;74897.25;4893085;28;103586;-80
2024/04/03 00:17:39;;;;;;;;;1.25;1.00;;;;;-143.90;100.00;74899.34;4889530;28;103717;-77
2024/04/03 00:20:05;;;;;;;;;1.50;1.50;;;;;-143.90;100.00;74901.41;4901913;28;102031;-78
2024/04/03 00:22:31;;;;;;;;;4.00;4.00;;;;;-143.90;100.00;74907.59;4901465;28;102213;-80
2024/04/03 00:24:58;;;;;;;;;3.75;3.00;;;;;-143.90;100.00;74911.72;4902995;28;104025;-78
2024/04/03 00:27:24;;;;;;;;;2.50;2.00;;;;;-143.90;100.00;74920.00;4891916;28;104614;-79
2024/04/03 00:29:49;;;;;;;;;4.75;3.00;;;;;-143.90;100.00;74930.34;4916631;28;102424;-76
2024/04/03 00:32:15;;;;;;;;;3.00;2.75;;;;;-143.90;100.00;74928.28;4896119;28;103817;-75
2024/04/03 00:34:41;;;;;;;;;2.25;2.00;;;;;-143.90;100.00;74926.22;4897325;28;101918;-80
2024/04/03 00:37:07;;;;;;;;;2.25;2.25;;;;;-143.90;100.00;74932.41;4899085;28;104649;-79
2024/04/03 00:39:35;;;;;;;;;2.75;2.00;;;;;-143.90;100.00;74924.13;4887505;28;103349;-72
2024/04/03 00:42:01;;;;;;;;;2.00;2.00;;;;;-143.90;100.00;74940.69;4903959;28;102997;-79
2024/04/03 00:44:27;;;;;;;;;2.25;2.00;;;;;-143.90;100.00;74948.94;4894132;28;102343;-79
2024/04/03 00:46:53;;;;;;;;;2.00;2.00;;;;;-143.90;100.00;74953.09;4890303;28;104416;-80
2024/04/03 00:49:19;;;;;;;;;3.25;3.00;;;;;-143.90;100.00;74957.22;4880798;28;102080;-78
2024/04/03 00:51:49;;;;;;;;;3.25;3.25;;;;;-143.90;100.00;74957.22;4899144;28;102202;-80
2024/04/03 00:54:19;;;;;;;;;2.00;2.00;;;;;-143.90;100.00;74957.22;4897755;28;102444;-81
2024/04/03 00:56:44;;;;;;;;;2.00;2.00;;;;;-143.90;100.00;74942.75;4872700;28;104590;-79
2024/04/03 00:59:12;;;;;;;;;3.00;2.00;;;;;-143.90;100.00;74944.81;4888684;28;102176;-77
2024/04/03 01:01:37;;;;;;;;;3.75;2.75;;;;;-143.90;100.00;74936.53;4878124;28;103902;-77
2024/04/03 01:04:03;;;;;;;;;2.00;2.00;;;;;-143.90;100.00;74932.41;4892949;28;102448;-77
2024/04/03 01:06:29;;;;;;;;;4.00;2.75;;;;;-143.90;100.00;74936.53;4899664;28;104605;-79
2024/04/03 01:08:54;;;;;;;;;3.50;3.00;;;;;-143.90;100.00;74940.69;4889099;28;102669;-79
2024/04/03 01:11:20;;;;;;;;;3.25;2.25;;;;;-143.90;100.00;74932.41;4881642;28;102605;-80
2024/04/03 01:13:46;;;;;;;;;1.50;1.50;;;;;-143.90;100.00;74932.41;4892411;28;102476;-81
2024/04/03 01:16:12;;;;;;;;;3.75;2.00;;;;;-143.90;100.00;74940.69;4886251;28;104525;-80
2024/04/03 01:18:37;;;;;;;;;2.00;2.00;;;;;-143.90;100.00;74938.59;4896545;28;102679;-80
2024/04/03 01:21:03;;;;;;;;;2.00;2.00;;;;;-143.90;100.00;74934.47;4900615;28;102444;-77
2024/04/03 01:23:29;;;;;;;;;2.00;1.00;;;;;-143.90;100.00;74932.41;4898525;28;102016;-79
2024/04/03 01:25:54;;;;;;;;;2.50;2.50;;;;;-143.90;100.00;74932.41;4904967;28;104417;-79
2024/04/03 01:28:22;;;;;;;;;4.25;3.00;;;;;-143.90;100.00;74938.59;4923335;28;102575;-77
2024/04/03 01:30:51;;;;;;;;;3.00;3.00;;;;;-143.90;100.00;74932.41;4904837;28;102611;-79
2024/04/03 01:33:17;;;;;;;;;3.00;2.25;;;;;-143.90;100.00;74932.41;4893533;28;104607;-78
2024/04/03 01:35:42;;;;;;;;;2.00;2.00;;;;;-143.90;100.00;74926.22;4905445;28;104603;-80
2024/04/03 01:38:09;;;;;;;;;4.00;2.00;;;;;-143.90;100.00;74922.06;4904172;28;102133;-79
2024/04/03 01:40:35;;;;;;;;;4.00;3.00;;;;;-143.90;100.00;74926.22;4904248;28;101987;-80
2024/04/03 01:43:01;;;;;;;;;3.25;2.25;;;;;-143.90;100.00;74917.94;4920704;28;102346;-79
2024/04/03 01:45:26;;;;;;;;;4.00;3.25;;;;;-143.90;100.00;74922.06;4891284;28;104703;-81
2024/04/03 01:47:52;;;;;;;;;4.25;3.00;;;;;-143.90;100.00;74903.47;4902506;28;102055;-79
2024/04/03 01:50:20;;;;;;;;;3.50;2.75;;;;;-143.90;100.00;74909.66;4901433;28;104940;-79
2024/04/03 01:52:46;;;;;;;;;2.00;2.00;;;;;-143.90;100.00;74901.41;4904506;28;102441;-79
2024/04/03 01:55:12;;;;;;;;;4.25;3.00;;;;;-143.90;100.00;74911.72;4895263;28;104328;-78
2024/04/03 01:57:38;;;;;;;;;3.25;3.00;;;;;-143.90;100.00;74915.88;4909949;28;102396;-81
2024/04/03 02:00:07;;;;;;;;;3.00;2.00;;;;;-143.90;100.00;74907.59;4903301;28;103596;-71
2024/04/03 02:02:33;;;;;;;;;3.25;2.50;;;;;-143.90;100.00;74907.59;4915120;28;102542;-79
2024/04/03 02:04:59;;;;;;;;;3.00;2.00;;;;;-143.90;100.00;74897.25;4905695;28;109342;-80
2024/04/03 02:07:25;;;;;;;;;1.50;1.50;;;;;-143.90;100.00;74895.19;4895189;28;102512;-77
2024/04/03 02:09:50;;;;;;;;;2.00;2.00;;;;;-143.90;100.00;74893.13;4901332;28;103090;-80
2024/04/03 02:12:16;;;;;;;;;2.00;1.75;;;;;-143.90;100.00;74895.19;4907174;28;104005;-77
2024/04/03 02:14:42;;;;;;;;;1.75;1.75;;;;;-143.90;100.00;74895.19;4903910;28;104577;-77
2024/04/03 02:17:08;;;;;;;;;1.00;1.00;;;;;-143.90;100.00;74895.19;4908193;28;105073;-77
2024/04/03 02:19:33;;;;;;;;;2.50;2.00;;;;;-143.90;100.00;74895.19;4896958;28;102340;-78
2024/04/03 02:21:59;;;;;;;;;2.00;1.25;;;;;-143.90;100.00;74893.13;4910265;28;102041;-78
2024/04/03 02:24:25;;;;;;;;;2.50;2.00;;;;;-143.90;100.00;74901.41;4909499;28;104593;-77
2024/04/03 02:26:50;;;;;;;;;2.25;2.00;;;;;-143.90;100.00;74897.25;4901064;28;102368;-78
2024/04/03 02:29:16;;;;;;;;;2.25;2.00;;;;;-143.90;100.00;74880.72;4896745;28;102255;-79
2024/04/03 02:31:42;;;;;;;;;2.00;2.00;;;;;-143.90;100.00;74874.53;4900211;28;104050;-78
2024/04/03 02:34:08;;;;;;;;;2.50;1.00;;;;;-143.90;100.00;74878.66;4901089;28;104734;-77
2024/04/03 02:36:34;;;;;;;;;2.75;1.75;;;;;-143.90;100.00;74878.66;4907159;28;103457;-79
2024/04/03 02:38:59;;;;;;;;;1.75;1.25;;;;;-143.90;100.00;74884.88;4905904;28;103211;-79
2024/04/03 02:41:25;;;;;;;;;2.75;2.00;;;;;-143.90;100.00;74878.66;4890697;28;102354;-79
2024/04/03 02:43:51;;;;;;;;;3.00;2.00;;;;;-143.90;100.00;74872.47;4896046;28;104480;-80
2024/04/03 02:46:17;;;;;;;;;5.00;4.25;;;;;-143.90;100.00;74874.53;4896505;28;102142;-76
2024/04/03 02:48:42;;;;;;;;;2.00;1.50;;;;;-143.90;100.00;74868.31;4897921;28;102149;-76
2024/04/03 02:51:11;;;;;;;;;4.00;2.00;;;;;-143.90;100.00;74862.13;4903795;28;102092;-77
2024/04/03 02:53:37;;;;;;;;;2.00;2.00;;;;;-143.90;100.00;74862.13;4895764;28;104769;-78
2024/04/03 02:56:04;;;;;;;;;1.75;1.75;;;;;-143.90;100.00;74858.00;4903569;28;101989;-79
2024/04/03 02:58:30;;;;;;;;;2.00;2.00;;;;;-143.90;100.00;74870.38;4905482;28;103569;-77
2024/04/03 03:00:58;;;;;;;;;2.00;2.00;;;;;-143.90;100.00;74868.31;4904230;28;102392;-77
2024/04/03 03:03:26;;;;;;;;;3.75;2.00;;;;;-143.90;100.00;74862.13;4891262;28;104583;-80
2024/04/03 03:05:53;;;;;;;;;2.00;2.00;;;;;-143.90;100.00;74872.47;4901537;28;102295;-77
2024/04/03 03:08:20;;;;;;;;;3.00;2.25;;;;;-143.90;100.00;74864.19;4903623;28;102394;-78
2024/04/03 03:10:45;;;;;;;;;2.50;1.75;;;;;-143.90;100.00;74864.19;4904600;28;103953;-79
2024/04/03 03:13:11;;;;;;;;;4.00;2.75;;;;;-143.90;100.00;74870.38;4900577;28;104532;-78
2024/04/03 03:15:36;;;;;;;;;1.75;1.75;;;;;-143.90;100.00;74870.38;4894714;28;102592;-79
2024/04/03 03:18:02;;;;;;;;;1.00;1.00;;;;;-143.90;100.00;74862.13;4903426;28;102117;-80
2024/04/03 03:20:27;;;;;;;;;2.00;2.00;;;;;-143.90;100.00;74858.00;4903195;28;102545;-79
2024/04/03 03:22:53;;;;;;;;;1.00;1.00;;;;;-143.90;100.00;74853.84;4905008;28;104611;-80
2024/04/03 03:25:19;;;;;;;;;2.00;1.00;;;;;-143.90;100.00;74860.06;4897580;28;102078;-78
2024/04/03 03:27:44;;;;;;;;;2.50;2.00;;;;;-143.90;100.00;74868.31;4904440;28;102306;-78
2024/04/03 03:30:10;;;;;;;;;1.50;1.00;;;;;-143.90;100.00;74870.38;4907924;28;102345;-80
2024/04/03 03:32:35;;;;;;;;;2.00;2.00;;;;;-143.90;100.00;74874.53;4907377;28;104474;-78
2024/04/03 03:35:01;;;;;;;;;0.50;0.50;;;;;-143.90;100.00;74880.72;4911248;28;101989;-78
2024/04/03 03:37:26;;;;;;;;;1.00;1.00;;;;;-143.90;100.00;74882.78;4896758;28;102404;-79
2024/04/03 03:39:52;;;;;;;;;2.00;2.00;;;;;-143.90;100.00;74886.94;4898802;28;102502;-79
2024/04/03 03:42:18;;;;;;;;;1.00;0.75;;;;;-143.90;100.00;74874.53;4902908;28;104528;-79
2024/04/03 03:44:44;;;;;;;;;1.00;1.00;;;;;-143.90;100.00;74886.94;4899662;28;108355;-78
2024/04/03 03:47:11;;;;;;;;;2.00;1.00;;;;;-143.90;100.00;74880.72;4904598;28;102671;-77
2024/04/03 03:52:40;;;;;;;;;3.00;1.00;;;;;-143.90;100.00;74868.31;4906633;28;104539;-77
2024/04/03 03:55:06;;;;;;;;;2.25;2.25;;;;;-143.90;100.00;74876.59;4893708;28;102702;-77
2024/04/03 03:57:32;;;;;;;;;2.50;1.00;;;;;-143.90;100.00;74884.88;4898583;28;102521;-79
2024/04/03 03:59:58;;;;;;;;;1.00;1.00;;;;;-143.90;100.00;74882.78;4903335;28;102418;-79
2024/04/03 04:02:24;;;;;;;;;1.00;1.00;;;;;-143.90;100.00;74895.19;4899049;28;104682;-78
2024/04/03 04:04:51;;;;;;;;;1.25;1.25;;;;;-143.90;100.00;74889.00;4902514;28;104558;-77
2024/04/03 04:07:21;;;;;;;;;2.50;1.50;;;;;-143.90;100.00;74882.78;4899308;28;102259;-77
2024/04/03 04:09:50;;;;;;;;;1.50;1.25;;;;;-143.90;100.00;74878.66;4906417;28;102163;-79
2024/04/03 04:12:17;;;;;;;;;1.00;1.00;;;;;-143.90;100.00;74880.72;4901779;28;104705;-77
2024/04/03 04:14:48;;;;;;;;;2.75;1.75;;;;;-143.90;100.00;74874.53;4903672;28;102254;-79
2024/04/03 04:17:15;;;;;;;;;2.75;1.00;;;;;-143.90;100.00;74868.31;4902923;28;102369;-78
2024/04/03 04:19:42;;;;;;;;;0.25;0.00;;;;;-143.90;100.00;74874.53;4913908;28;104962;-79
2024/04/03 04:22:08;;;;;;;;;2.50;2.00;;;;;-143.90;100.00;74876.59;4903745;28;104702;-81
2024/04/03 04:24:37;;;;;;;;;2.25;1.25;;;;;-143.90;100.00;74868.31;4909424;28;104204;-71
2024/04/03 04:27:05;;;;;;;;;2.25;2.00;;;;;-143.90;100.00;74870.38;4901758;28;102666;-79
2024/04/03 04:29:31;;;;;;;;;2.00;2.00;;;;;-143.90;100.00;74870.38;4897303;28;102000;-81
2024/04/03 04:32:00;;;;;;;;;3.25;2.75;;;;;-143.90;100.00;74878.66;4902961;28;104576;-78
2024/04/03 04:34:26;;;;;;;;;3.75;2.75;;;;;-143.90;100.00;74870.38;4902206;28;102574;-79
2024/04/03 04:36:52;;;;;;;;;3.00;2.00;;;;;-143.90;100.00;74872.47;4903661;28;102669;-80
2024/04/03 04:39:18;;;;;;;;;2.00;2.00;;;;;-143.90;100.00;74870.38;4898963;28;102843;-77
2024/04/03 04:41:48;;;;;;;;;2.00;1.25;;;;;-143.90;100.00;74862.13;4899255;28;104487;-77
2024/04/03 04:44:14;;;;;;;;;4.00;2.00;;;;;-143.90;100.00;74868.31;4902238;28;102298;-80
2024/04/03 04:46:40;;;;;;;;;4.25;2.75;;;;;-143.90;100.00;74874.53;4904832;28;102561;-78
2024/04/03 04:49:05;;;;;;;;;1.75;1.75;;;;;-143.90;100.00;74866.25;4905034;28;103713;-78
2024/04/03 04:51:31;;;;;;;;;3.00;2.50;;;;;-143.90;100.00;74872.47;4896811;28;103128;-79
2024/04/03 04:53:57;;;;;;;;;1.50;1.50;;;;;-143.90;100.00;74876.59;4898086;28;102721;-78
2024/04/03 04:56:22;;;;;;;;;3.00;2.00;;;;;-143.90;100.00;74882.78;4901694;28;102615;-77
2024/04/03 04:58:48;;;;;;;;;3.75;2.00;;;;;-143.90;100.00;74891.06;4892572;28;102462;-78
2024/04/03 05:01:13;;;;;;;;;3.00;1.00;;;;;-143.90;100.00;74899.34;4879114;28;104660;-76
2024/04/03 05:03:39;;;;;;;;;1.00;1.00;;;;;-143.90;100.00;74882.78;4892158;28;102028;-79
2024/04/03 05:06:05;;;;;;;;;2.00;2.00;;;;;-143.90;100.00;74878.66;4897791;28;103384;-75
2024/04/03 05:08:31;;;;;;;;;2.00;2.00;;;;;-143.90;100.00;74874.53;4557465;28;10001840;-78
2024/04/03 05:10:58;;;;;;;;;1.50;1.50;;;;;-143.90;100.00;74876.59;4897828;28;102503;-76
2024/04/03 05:13:29;;;;;;;;;3.25;3.00;;;;;-143.90;100.00;74868.31;4890787;28;104539;-76
2024/04/03 05:15:55;;;;;;;;;3.00;3.00;;;;;-143.90;100.00;74886.94;4902514;28;102423;-76
2024/04/03 05:18:20;;;;;;;;;2.50;2.00;;;;;-143.90;100.00;74878.66;4904002;28;104923;-78
2024/04/03 05:20:46;;;;;;;;;2.25;1.25;;;;;-143.90;100.00;74878.66;4905889;28;102277;-77
2024/04/03 05:23:11;;;;;;;;;3.00;2.00;;;;;-143.90;100.00;74878.66;4905615;28;104626;-77
2024/04/03 05:25:37;;;;;;;;;1.00;1.00;;;;;-143.90;100.00;74893.13;4890402;28;102000;-78
2024/04/03 05:28:06;;;;;;;;;2.00;2.00;;;;;-143.90;100.00;74884.88;4901642;28;101940;-75
2024/04/03 05:30:35;;;;;;;;;3.00;2.00;;;;;-143.90;100.00;74889.00;4902151;28;102477;-74
2024/04/03 05:33:01;;;;;;;;;3.00;2.25;;;;;-143.90;100.00;74895.19;4898584;28;104592;-76
2024/04/03 05:35:26;;;;;;;;;2.75;2.50;;;;;-143.90;100.00;74891.06;4898522;28;102845;-76
2024/04/03 05:37:52;;;;;;;;;3.50;2.25;;;;;-143.90;100.00;74895.19;4900635;28;102626;-76
2024/04/03 05:40:18;;;;;;;;;2.00;1.00;;;;;-143.90;100.00;74884.88;4905266;28;102457;-76
2024/04/03 05:42:43;;;;;;;;;2.25;2.25;;;;;-143.90;100.00;74884.88;4902803;28;104446;-77
2024/04/03 05:45:09;;;;;;;;;4.75;3.00;;;;;-143.90;100.00;74880.72;4906044;28;104661;-76
2024/04/03 05:47:35;;;;;;;;;4.00;3.00;;;;;-143.90;100.00;74891.06;4895528;28;103585;-75
2024/04/03 05:50:06;;;;;;;;;2.00;2.00;;;;;-143.90;100.00;74889.00;4895712;28;104402;-76
2024/04/03 05:52:36;;;;;;;;;1.50;1.50;;;;;-143.90;100.00;74874.53;4900823;28;104635;-74
2024/04/03 05:55:02;;;;;;;;;2.25;2.25;;;;;-143.90;100.00;74862.13;4893759;28;102507;-75
2024/04/03 05:57:28;;;;;;;;;2.00;1.00;;;;;-143.90;100.00;74843.53;4890460;28;102562;-76
2024/04/03 05:59:53;;;;;;;;;2.25;2.25;;;;;-143.90;100.00;74831.13;4903656;28;102263;-75
2024/04/03 06:02:19;;;;;;;;;2.75;2.00;;;;;-143.90;100.00;74833.19;4902691;28;104401;-74
2024/04/03 06:04:45;;;;;;;;;2.50;2.50;;;;;-143.90;100.00;74841.44;4893161;28;102463;-74
2024/04/03 06:07:10;;;;;;;;;2.00;1.50;;;;;-143.90;100.00;74837.31;4907346;28;103468;-76
2024/04/03 06:09:36;;;;;;;;;3.00;2.00;;;;;-143.90;100.00;74835.25;4904029;28;104203;-75
2024/04/03 06:12:01;;;;;;;;;3.75;3.00;;;;;-143.90;100.00;74837.31;4907758;28;104523;-75
2024/04/03 06:14:27;;;;;;;;;3.50;3.00;;;;;-143.90;100.00;74837.31;4901796;28;102512;-76
2024/04/03 06:16:52;;;;;;;;;2.75;2.75;;;;;-143.90;100.00;74826.97;4907822;28;102625;-76
2024/04/03 06:19:18;;;;;;;;;3.00;2.00;;;;;-143.90;100.00;74816.66;4898142;28;102096;-77
2024/04/03 06:21:44;;;;;;;;;2.50;2.00;;;;;-143.90;100.00;74816.66;4896536;28;108870;-74
2024/04/03 06:24:09;;;;;;;;;3.50;2.00;;;;;-143.90;100.00;74793.91;4908469;28;102564;-70
2024/04/03 06:26:36;;;;;;;;;3.00;3.00;;;;;-143.90;100.00;74779.44;4905825;28;102679;-75
2024/04/03 06:29:03;;;;;;;;;2.50;1.50;;;;;-143.90;100.00;74764.97;4902494;28;102560;-76
2024/04/03 06:31:30;;;;;;;;;3.00;2.00;;;;;-143.90;100.00;74725.69;4896695;28;104801;-76
2024/04/03 06:33:57;;;;;;;;;1.00;1.00;;;;;-143.90;100.00;74696.75;4905285;28;104372;-76
2024/04/03 06:36:23;;;;;;;;;3.00;2.00;;;;;-143.90;100.00;74634.72;4906760;28;102457;-77
2024/04/03 06:38:49;;;;;;;;;1.00;1.00;;;;;-143.90;100.00;74643.00;4907438;28;102531;-75
2024/04/03 06:41:14;;;;;;;;;2.50;2.00;;;;;-143.90;100.00;74628.53;4903822;28;104985;-77
2024/04/03 06:43:40;;;;;;;;;1.25;1.00;;;;;-143.90;100.00;74651.28;4897341;28;102600;-76
2024/04/03 06:46:06;;;;;;;;;3.50;2.75;;;;;-143.90;100.00;74655.41;4908093;28;102053;-77
2024/04/03 06:48:32;;;;;;;;;2.00;1.75;;;;;-143.90;100.00;74630.59;4907039;28;102634;-75
2024/04/03 06:50:57;;;;;;;;;4.00;2.75;;;;;-143.90;100.00;74626.47;4903022;28;104539;-76
2024/04/03 06:53:23;;;;;;;;;2.50;2.50;;;;;-143.90;100.00;74655.41;4899128;28;102221;-75
2024/04/03 06:56:00;;;;;;;;;2.00;1.75;;;;;-143.90;100.00;74605.78;4898107;28;102485;-79
2024/04/03 06:58:40;;;;;;;;;1.25;1.00;;;;;-143.90;100.00;74576.84;4910862;28;104945;-74
2024/04/03 07:01:06;;;;;;;;;2.25;2.25;;;;;-143.90;100.00;74562.38;4905221;28;109174;-76
2024/04/03 07:03:32;;;;;;;;;2.25;1.00;;;;;-143.90;100.00;74593.38;4898031;28;102431;-74
2024/04/03 07:05:59;;;;;;;;;3.25;2.00;;;;;-143.90;100.00;74576.84;4905421;28;102381;-75
2024/04/03 07:08:24;;;;;;;;;4.00;3.75;;;;;-143.90;100.00;74593.38;4906648;28;102434;-75
2024/04/03 07:10:51;;;;;;;;;2.00;2.00;;;;;-143.90;100.00;74535.50;4903681;28;105608;-77
2024/04/03 07:13:17;;;;;;;;;2.75;2.00;;;;;-143.90;100.00;74541.72;4909759;28;101947;-77
2024/04/03 07:15:49;;;;;;;;;1.75;1.75;;;;;-143.90;100.00;74535.50;4893614;28;102453;-78
2024/04/03 07:18:16;;;;;;;;;1.00;1.00;;;;;-143.90;100.00;74543.78;4905385;28;102199;-76
2024/04/03 07:20:41;;;;;;;;;2.00;2.00;;;;;-143.90;100.00;74533.44;4897616;28;105142;-75
2024/04/03 07:23:08;;;;;;;;;1.75;1.75;;;;;-143.90;100.00;74556.19;4908139;28;102842;-77
2024/04/03 07:25:33;;;;;;;;;2.00;1.00;;;;;-143.90;100.00;74537.56;4891021;28;102336;-75
2024/04/03 07:28:09;;;;;;;;;2.50;2.00;;;;;-143.90;100.00;74531.38;4902524;28;102371;-75
2024/04/03 07:30:40;;;;;;;;;1.00;1.00;;;;;-143.90;100.00;74516.91;4903136;28;109198;-78
2024/04/03 07:33:05;;;;;;;;;2.00;2.00;;;;;-143.90;100.00;74502.44;4903732;28;103128;-75
2024/04/03 07:35:31;;;;;;;;;2.50;2.00;;;;;-143.90;100.00;74452.84;4894475;28;102244;-79
2024/04/03 07:37:57;;;;;;;;;3.50;3.00;;;;;-143.90;100.00;74446.63;4905873;28;102950;-75
2024/04/03 07:40:23;;;;;;;;;1.25;1.25;;;;;-143.90;70.89;74465.22;4907857;28;105031;-84
2024/04/03 07:42:48;;;;;;;;;2.00;2.00;;;;;-143.90;70.72;74498.31;4900899;28;102439;-80
2024/04/03 07:45:14;;;;;;;;;1.75;1.75;;;;;-143.90;71.30;74485.91;4887705;28;102370;-76
2024/04/03 07:47:40;;;;;;;;;2.00;2.00;;;;;-143.90;71.09;74471.44;4878249;28;102658;-77
2024/04/03 07:50:06;;;;;;;;;2.75;1.25;;;;;-143.90;69.41;74518.97;4905945;28;108684;-76
2024/04/03 07:52:37;;;;;;;;;1.75;1.75;;;;;-143.90;70.64;74510.72;4906237;28;102390;-77
2024/04/03 07:55:04;;;;;;;;;1.75;0.50;;;;;-143.90;70.94;74516.91;4906956;28;102443;-77
2024/04/03 07:57:30;;;;;;;;;2.00;1.25;;;;;-143.90;68.74;74490.03;4895238;28;102446;-77
2024/04/03 07:59:55;;;;;;;;;2.75;2.00;;;;;-143.90;69.11;74516.91;4896414;28;106153;-76
2024/04/03 08:02:21;;;;;;;;;3.25;2.00;;;;;-143.90;67.94;74485.91;4903766;28;102098;-75
2024/04/03 08:04:46;;;;;;;;;2.00;1.25;;;;;-143.90;68.02;74473.50;4904407;28;102621;-76
2024/04/03 08:07:12;;;;;;;;;3.00;2.00;;;;;-143.90;65.83;74473.50;4905050;28;103528;-76
2024/04/03 08:09:38;;;;;;;;;2.25;1.50;;;;;-143.90;66.22;74461.09;4897326;28;104984;-75
2024/04/03 08:12:03;;;;;;;;;2.25;2.00;;;;;-143.90;66.88;74446.63;4923309;28;102617;-74
2024/04/03 08:14:29;;;;;;;;;2.00;1.50;;;;;-143.90;65.99;74479.69;4920971;28;102594;-76
2024/04/03 08:16:55;;;;;;;;;1.50;1.50;;;;;-143.90;65.22;74490.03;4907313;28;103183;-78
2024/04/03 08:19:22;;;;;;;;;2.00;2.00;;;;;-143.90;65.29;74496.25;4903945;28;104492;-77
2024/04/03 08:21:48;;;;;;;;;2.00;2.00;;;;;-143.90;65.14;74481.78;4901356;28;102350;-77
2024/04/03 08:24:14;;;;;;;;;2.75;2.00;;;;;-143.90;64.77;74456.97;4906679;28;101905;-74
2024/04/03 08:26:40;;;;;;;;;2.00;2.00;;;;;-143.90;65.50;74423.88;4910946;28;102453;-75
2024/04/03 08:29:06;;;;;;;;;2.00;2.00;;;;;-143.90;62.37;74417.69;4904252;28;108097;-74
2024/04/03 08:31:32;;;;;;;;;1.25;1.25;;;;;-143.90;61.90;74392.88;4886686;28;102336;-77
2024/04/03 08:33:58;;;;;;;;;4.00;2.00;;;;;-143.90;62.50;74401.16;4889250;28;102291;-76
2024/04/03 08:36:26;;;;;;;;;2.25;1.25;;;;;-143.90;61.66;74409.41;4886539;28;102534;-79
2024/04/03 08:38:52;;;;;;;;;1.00;1.00;;;;;-143.90;61.12;74394.94;4906685;28;104600;-75
2024/04/03 08:41:19;;;;;;;;;1.50;1.00;;;;;-143.90;61.07;74388.75;4904109;28;102219;-78
2024/04/03 08:43:51;;;;;;;;;13.50;10.50;;;;;-143.90;60.22;74361.88;4897964;28;102175;-79
2024/04/03 08:46:18;;;;;;;;;20.50;18.75;;;;;-143.90;60.26;74345.34;4905795;28;102097;-74
2024/04/03 08:48:46;;;;;;;;;26.25;20.75;;;;;-143.90;58.26;74337.06;4905101;28;104594;-76
2024/04/03 08:51:14;;;;;;;;;2.00;2.00;;;;;-143.90;58.98;74345.34;4904440;28;102846;-75
2024/04/03 08:53:43;;;;;;;;;2.00;2.00;;;;;-143.90;60.17;74335.00;4892529;28;102532;-75
2024/04/03 08:56:13;;;;;;;;;0.50;0.50;;;;;-143.90;58.22;74339.16;4880096;28;102089;-83
2024/04/03 08:58:39;;;;;;;;;2.00;2.00;;;;;-143.90;56.51;74341.22;4905842;28;109003;-75
2024/04/03 09:01:05;;;;;;;;;2.00;2.00;;;;;-143.90;58.26;74326.75;4908312;28;103265;-73
2024/04/03 09:03:31;;;;;;;;;1.75;1.75;;;;;-143.90;57.57;74328.81;4894282;28;102108;-77
2024/04/03 09:05:56;;;;;;;;;2.00;2.00;;;;;-143.90;57.32;74293.66;4900175;28;102407;-75
2024/04/03 09:08:22;;;;;;;;;2.00;2.00;;;;;-143.90;57.67;74250.25;4903550;28;104563;-74
2024/04/03 09:10:54;;;;;;;;;3.00;1.25;;;;;-143.90;56.93;74270.94;4903692;28;102496;-78
2024/04/03 09:13:20;;;;;;;;;2.00;2.00;;;;;-143.90;55.02;74270.94;4902332;28;103334;-75
2024/04/03 09:15:51;;;;;;;;;1.00;1.00;;;;;-143.90;55.21;74268.88;4900131;28;102401;-79
2024/04/03 09:18:18;;;;;;;;;3.75;2.00;;;;;-143.90;54.76;74277.13;4904240;28;104641;-77
2024/04/03 09:20:46;;;;;;;;;2.25;1.00;;;;;-143.90;54.75;74289.53;4905040;28;102414;-73
2024/04/03 09:23:12;;;;;;;;;1.75;1.75;;;;;-143.90;55.31;74285.41;4906108;28;103136;-70
2024/04/03 09:25:38;;;;;;;;;1.00;1.00;;;;;-143.90;54.35;74299.88;4896213;28;103286;-75
2024/04/03 09:28:08;;;;;;;;;1.25;1.00;;;;;-143.90;55.56;74314.34;4899918;28;104504;-78
2024/04/03 09:30:36;;;;;;;;;0.50;0.50;;;;;-143.90;53.26;74341.22;4899309;28;102811;-79
2024/04/03 09:33:06;;;;;;;;;0.00;0.00;;;;;-143.90;53.33;74357.75;4901603;28;102471;-73
2024/04/03 09:35:38;;;;;;;;;0.00;0.00;;;;;-143.90;53.40;74316.41;4884518;28;102414;-75
2024/04/03 09:38:04;;;;;;;;;0.50;0.50;;;;;-143.90;52.28;74328.81;4904662;28;104690;-75
2024/04/03 09:40:31;;;;;;;;;1.25;1.25;;;;;-143.90;51.22;74328.81;4904591;28;102653;-76
2024/04/03 09:43:05;;;;;;;;;0.50;0.00;;;;;-143.90;49.87;74341.22;4908465;28;102463;-75
2024/04/03 09:45:31;;;;;;;;;1.00;1.00;;;;;-143.90;50.62;74366.00;4895457;28;102089;-74
2024/04/03 09:48:09;;;;;;;;;1.25;1.00;;;;;-143.90;49.12;74382.56;4906109;28;104622;-78
2024/04/03 09:50:44;;;;;;;;;0.50;0.50;;;;;-143.90;48.19;74345.34;4906151;28;102585;-76
2024/04/03 09:53:20;;;;;;;;;1.00;1.00;;;;;-143.90;48.73;74320.53;4904333;28;102229;-76
2024/04/03 09:55:47;;;;;;;;;2.00;1.00;;;;;-143.90;49.52;74295.75;4901697;28;103349;-76
2024/04/03 09:58:15;;;;;;;;;1.25;1.25;;;;;-143.90;46.79;74268.88;4905097;28;104604;-72
2024/04/03 10:00:49;;;;;;;;;1.00;1.00;;;;;-143.90;46.66;74270.94;4900719;28;102449;-84
2024/04/03 10:03:25;;;;;;;;;0.75;0.75;;;;;-143.90;45.74;74204.78;4905397;28;102816;-82
2024/04/03 10:06:02;;;;;;;;;3.00;1.50;;;;;-143.90;45.00;74200.66;4904513;28;102251;-74
2024/04/03 10:08:35;;;;;;;;;1.50;1.00;;;;;-143.90;46.23;74225.47;4904577;28;104439;-76
2024/04/03 10:11:05;;;;;;;;;1.00;1.00;;;;;-143.90;46.03;74252.34;4906687;28;102190;-78
2024/04/03 10:13:36;;;;;;;;;0.75;0.75;;;;;-143.90;46.01;74244.06;4897306;28;102458;-83
2024/04/03 10:16:03;;;;;;;;;0.00;0.00;;;;;-143.90;45.96;74266.81;4907273;28;102514;-79
2024/04/03 10:18:34;;;;;;;;;0.00;0.00;;;;;-143.90;45.71;74235.78;4885911;28;104581;-77
2024/04/03 10:21:03;;;;;;;;;1.00;1.00;;;;;-143.90;45.00;74242.00;4904421;28;101978;-75
2024/04/03 10:23:28;;;;;;;;;1.00;1.00;;;;;-143.90;44.66;74252.34;4900400;28;102584;-76
2024/04/03 10:25:55;;;;;;;;;0.00;0.00;;;;;-143.90;46.99;74208.94;4905851;28;102575;-76
2024/04/03 10:28:21;;;;;;;;;0.25;0.25;;;;;-143.90;44.89;74213.06;4905257;28;104698;-83
2024/04/03 10:30:56;;;;;;;;;1.00;1.00;;;;;-143.90;45.36;74250.25;4909464;28;103870;-76
2024/04/03 10:33:22;;;;;;;;;1.00;0.00;;;;;-143.90;44.92;74250.25;4903005;28;102024;-77
2024/04/03 10:35:49;;;;;;;;;1.75;1.00;;;;;-143.90;45.21;74270.94;4906709;28;102239;-75
2024/04/03 10:38:14;;;;;;;;;1.50;0.00;;;;;-143.90;46.74;74266.81;4904885;28;105105;-78
2024/04/03 10:40:40;;;;;;;;;1.00;0.75;;;;;-143.90;45.64;74266.81;4901629;28;102042;-81
2024/04/03 10:43:06;;;;;;;;;0.50;0.50;;;;;-143.90;45.20;74262.66;4906211;28;102327;-83
2024/04/03 10:45:31;;;;;;;;;1.00;1.00;;;;;-143.90;46.05;74260.59;4895643;28;102389;-79
2024/04/03 10:47:57;;;;;;;;;0.00;0.00;;;;;-143.90;45.42;74283.34;4903789;28;104519;-78
2024/04/03 10:50:24;;;;;;;;;0.00;0.00;;;;;-143.90;45.18;74266.81;4901509;28;102643;-73
2024/04/03 10:52:50;;;;;;;;;1.25;1.00;;;;;-143.90;45.48;74289.53;4906514;28;102503;-81
2024/04/03 10:55:20;;;;;;;;;2.00;1.25;;;;;-143.90;45.15;74266.81;4903118;28;102500;-82
2024/04/03 10:57:52;;;;;;;;;0.75;0.75;;;;;-143.90;46.73;74301.94;4902003;28;109959;-76
2024/04/03 11:00:20;;;;;;;;;0.00;0.00;;;;;-143.90;46.01;74310.22;4899941;28;101953;-77
2024/04/03 11:02:46;;;;;;;;;1.00;1.00;;;;;-143.90;46.06;74268.88;4901326;28;104308;-77
2024/04/03 11:05:14;;;;;;;;;1.00;1.00;;;;;-143.90;45.71;74229.59;4909720;28;102070;-80